Terminal Aerodrome Forecast
Issued by NWS

Home | Current Version | Previous Version | Text Only | Print | Product List | Glossary On
Versions: 1 2 3 4 5 6 7 8 9 10 11 12 13 14 15
000
FTUS41 KAKQ 151729
TAFPHF
TAF
KPHF 151729Z 1518/1618 02005KT P6SM OVC025
     FM152000 32007KT P6SM BKN035
     FM152300 30008KT P6SM SKC=

USA.gov is the U.S. government's official web portal to all federal, state and local government web resources and services.